Time,TemperatureF,DewpointF,PressureIn,WindDirection,WindDirectionDegrees,WindSpeedMPH,WindSpeedGustMPH,Humidity,HourlyPrecipIn,Conditions,Clouds,dailyrainin,SoftwareType,DateUTC
2013-04-04 00:00:00,68.2,68.1,30.03,East,87,2.0,3.3,100,0.32,,---,0.00,VWS V14.01,2013-04-04 04:00:00,
2013-04-04 00:01:00,68.9,63.8,29.93,South,169,2.2,7.1,84,0.00,,---,0.00,VWS V14.01,2013-04-04 04:01:00,
2013-04-04 00:05:00,67.4,67.3,30.03,East,100,2.4,2.4,100,0.19,,---,0.00,VWS V14.01,2013-04-04 04:05:00,
2013-04-04 00:10:00,68.0,67.9,30.03,SSE,150,0.0,0.0,100,0.05,,---,0.00,VWS V14.01,2013-04-04 04:10:00,
2013-04-04 00:15:00,68.3,68.2,30.03,East,89,0.0,0.0,100,0.00,,---,0.00,VWS V14.01,2013-04-04 04:15:00,
2013-04-04 00:20:00,68.1,68.1,30.03,East,89,0.0,0.0,100,0.00,,---,0.00,VWS V14.01,2013-04-04 04:20:00,
2013-04-04 00:25:00,68.3,68.2,30.03,East,87,1.3,4.7,100,0.00,,---,0.00,VWS V14.01,2013-04-04 04:25:00,
2013-04-04 00:30:00,68.4,68.4,30.02,NE,46,0.0,0.0,100,0.00,,---,0.00,VWS V14.01,2013-04-04 04:30:00,
2013-04-04 00:35:00,68.3,68.3,30.02,SE,143,5.6,5.6,100,0.00,,---,0.00,VWS V14.01,2013-04-04 04:35:00,
2013-04-04 00:40:00,68.6,68.6,30.01,SE,131,0.0,0.0,100,0.00,,---,0.00,VWS V14.01,2013-04-04 04:40:00,
2013-04-04 00:45:00,68.6,68.6,30.01,ESE,115,1.6,6.5,100,0.00,,---,0.00,VWS V14.01,2013-04-04 04:45:00,
2013-04-04 00:50:00,68.2,68.2,30.02,NE,56,0.0,1.7,100,0.00,,---,0.00,VWS V14.01,2013-04-04 04:50:00,
2013-04-04 00:55:00,68.4,68.4,30.02,SSE,150,0.0,1.1,100,0.00,,---,0.00,VWS V14.01,2013-04-04 04:55:00,
2013-04-04 01:00:00,68.7,68.7,30.01,East,79,0.0,0.0,100,0.00,,---,0.00,VWS V14.01,2013-04-04 05:00:00,
2013-04-04 01:05:00,68.5,68.5,30.02,NNE,13,0.0,1.5,100,0.00,,---,0.00,VWS V14.01,2013-04-04 05:05:00,
2013-04-04 01:10:00,68.9,68.9,30.02,ESE,112,0.0,0.0,100,0.00,,---,0.00,VWS V14.01,2013-04-04 05:10:00,
2013-04-04 01:15:00,68.5,68.5,30.01,ESE,112,0.0,0.0,100,0.00,,---,0.00,VWS V14.01,2013-04-04 05:15:00,
2013-04-04 01:20:00,69.5,69.5,29.99,SE,124,3.8,8.9,100,0.00,,---,0.00,VWS V14.01,2013-04-04 05:20:00,
2013-04-04 01:25:00,68.8,68.8,30.00,SSE,153,5.2,9.3,100,0.00,,---,0.00,VWS V14.01,2013-04-04 05:25:00,
2013-04-04 01:30:00,69.2,69.2,30.00,SE,125,5.3,8.8,100,0.00,,---,0.00,VWS V14.01,2013-04-04 05:30:00,
2013-04-04 01:35:00,69.6,69.6,30.00,ESE,112,4.4,12.0,100,0.00,,---,0.00,VWS V14.01,2013-04-04 05:35:00,
2013-04-04 01:40:00,69.4,69.4,30.00,ESE,103,2.9,2.9,100,0.00,,---,0.00,VWS V14.01,2013-04-04 05:40:00,
2013-04-04 01:45:00,69.5,69.5,30.00,East,98,3.0,3.0,100,0.00,,---,0.00,VWS V14.01,2013-04-04 05:45:00,
2013-04-04 01:50:00,69.9,69.9,30.00,NE,55,1.1,1.6,100,0.00,,---,0.00,VWS V14.01,2013-04-04 05:50:00,
2013-04-04 01:55:00,69.9,69.9,30.00,SE,128,0.0,0.9,100,0.00,,---,0.00,VWS V14.01,2013-04-04 05:55:00,
2013-04-04 02:00:00,70.1,70.1,30.00,East,90,3.0,4.8,100,0.00,,---,0.00,VWS V14.01,2013-04-04 06:00:00,
2013-04-04 02:05:00,70.1,70.1,30.00,SE,132,3.0,4.9,100,0.00,,---,0.00,VWS V14.01,2013-04-04 06:05:00,
2013-04-04 02:10:00,70.0,70.0,30.00,SE,136,1.9,4.3,100,0.00,,---,0.00,VWS V14.01,2013-04-04 06:10:00,
2013-04-04 02:15:00,69.2,69.2,30.00,SE,125,3.0,7.4,100,0.00,,---,0.00,VWS V14.01,2013-04-04 06:15:00,
2013-04-04 02:20:00,70.4,70.4,30.00,East,101,0.0,1.2,100,0.00,,---,0.00,VWS V14.01,2013-04-04 06:20:00,
2013-04-04 02:25:00,70.5,70.5,30.00,ESE,103,0.7,5.3,100,0.00,,---,0.00,VWS V14.01,2013-04-04 06:25:00,
2013-04-04 02:30:00,69.6,69.6,30.00,ESE,118,1.7,2.6,100,0.00,,---,0.00,VWS V14.01,2013-04-04 06:30:00,
2013-04-04 02:35:00,70.1,70.1,30.00,East,83,1.9,3.5,100,0.00,,---,0.00,VWS V14.01,2013-04-04 06:35:00,
2013-04-04 02:40:00,69.4,69.4,30.00,East,97,3.7,3.7,100,0.00,,---,0.00,VWS V14.01,2013-04-04 06:40:00,
2013-04-04 02:45:00,69.8,69.8,30.00,ENE,62,0.0,0.0,100,0.00,,---,0.00,VWS V14.01,2013-04-04 06:45:00,
2013-04-04 02:50:00,70.2,70.2,29.99,ESE,117,0.0,2.7,100,0.00,,---,0.00,VWS V14.01,2013-04-04 06:50:00,
2013-04-04 02:55:00,69.9,69.9,30.00,ESE,117,3.5,3.5,100,0.00,,---,0.00,VWS V14.01,2013-04-04 06:55:00,
2013-04-04 03:00:00,70.0,70.0,29.99,ESE,107,1.3,5.8,100,0.00,,---,0.00,VWS V14.01,2013-04-04 07:00:00,
2013-04-04 03:05:00,70.4,70.4,29.99,ESE,112,3.1,4.5,100,0.00,,---,0.00,VWS V14.01,2013-04-04 07:05:00,
2013-04-04 03:10:00,70.2,70.2,29.99,SE,138,3.9,7.2,100,0.00,,---,0.00,VWS V14.01,2013-04-04 07:10:00,
2013-04-04 03:15:00,69.5,69.5,29.99,SE,145,2.7,5.0,100,0.00,,---,0.00,VWS V14.01,2013-04-04 07:15:00,
2013-04-04 03:20:00,69.8,69.8,29.99,SE,132,3.0,3.5,100,0.00,,---,0.00,VWS V14.01,2013-04-04 07:20:00,
2013-04-04 03:25:00,70.2,70.2,29.99,SSE,162,2.4,2.4,100,0.00,,---,0.00,VWS V14.01,2013-04-04 07:25:00,
2013-04-04 03:30:00,70.1,70.1,29.98,ESE,118,0.7,6.8,100,0.00,,---,0.00,VWS V14.01,2013-04-04 07:30:00,
2013-04-04 03:35:00,70.2,70.2,29.98,NE,44,0.4,6.0,100,0.00,,---,0.00,VWS V14.01,2013-04-04 07:35:00,
2013-04-04 03:40:00,69.7,69.7,29.99,ESE,105,0.0,2.2,100,0.00,,---,0.00,VWS V14.01,2013-04-04 07:40:00,
2013-04-04 03:45:00,69.5,69.5,29.99,SSE,158,0.0,0.0,100,0.00,,---,0.00,VWS V14.01,2013-04-04 07:45:00,
2013-04-04 03:50:00,70.0,70.0,29.99,East,80,0.0,0.0,100,0.00,,---,0.00,VWS V14.01,2013-04-04 07:50:00,
2013-04-04 03:55:00,70.0,70.0,29.98,East,97,0.0,0.6,100,0.00,,---,0.00,VWS V14.01,2013-04-04 07:55:00,
2013-04-04 04:00:00,69.5,69.5,29.98,East,97,0.9,3.2,100,0.00,,---,0.00,VWS V14.01,2013-04-04 08:00:00,
2013-04-04 04:05:00,69.4,69.4,29.97,SE,141,1.3,4.2,100,0.00,,---,0.00,VWS V14.01,2013-04-04 08:05:00,
2013-04-04 04:10:00,70.1,70.1,29.97,SE,141,4.8,6.4,100,0.00,,---,0.00,VWS V14.01,2013-04-04 08:10:00,
2013-04-04 04:15:00,69.5,69.5,29.97,SSE,159,3.7,9.8,100,0.00,,---,0.00,VWS V14.01,2013-04-04 08:15:00,
2013-04-04 04:20:00,69.4,69.4,29.96,SSE,162,2.7,6.2,100,0.00,,---,0.00,VWS V14.01,2013-04-04 08:20:00,
2013-04-04 04:25:00,70.2,70.2,29.95,SE,132,1.8,9.9,100,0.00,,---,0.00,VWS V14.01,2013-04-04 08:25:00,
2013-04-04 04:30:00,69.9,69.9,29.95,SSW,198,2.4,7.7,100,0.00,,---,0.00,VWS V14.01,2013-04-04 08:30:00,
2013-04-04 04:35:00,69.8,69.8,29.95,SE,142,7.8,9.4,100,0.00,,---,0.00,VWS V14.01,2013-04-04 08:35:00,
2013-04-04 04:40:00,70.2,70.2,29.95,South,169,5.3,7.9,100,0.00,,---,0.00,VWS V14.01,2013-04-04 08:40:00,
2013-04-04 04:45:00,70.1,70.1,29.95,SSE,166,3.9,5.4,100,0.00,,---,0.00,VWS V14.01,2013-04-04 08:45:00,
2013-04-04 04:50:00,70.4,70.4,29.96,SSE,163,5.5,7.5,100,0.00,,---,0.00,VWS V14.01,2013-04-04 08:50:00,
2013-04-04 04:55:00,69.7,69.7,29.96,South,183,7.6,10.6,100,0.00,,---,0.00,VWS V14.01,2013-04-04 08:55:00,
2013-04-04 05:00:00,69.9,69.9,29.96,SSE,153,8.6,8.6,100,0.00,,---,0.00,VWS V14.01,2013-04-04 09:00:00,
2013-04-04 05:05:00,69.5,69.5,29.95,SE,138,6.5,9.5,100,0.00,,---,0.00,VWS V14.01,2013-04-04 09:05:00,
2013-04-04 05:10:00,69.9,69.9,29.94,SE,139,7.1,9.4,100,0.00,,---,0.00,VWS V14.01,2013-04-04 09:10:00,
2013-04-04 05:15:00,70.3,70.3,29.92,SE,143,6.8,11.6,100,0.00,,---,0.00,VWS V14.01,2013-04-04 09:15:00,
2013-04-04 05:20:00,70.4,70.4,29.90,SE,139,9.6,16.1,100,0.01,,---,0.01,VWS V14.01,2013-04-04 09:20:00,
2013-04-04 05:25:00,69.9,69.9,29.91,SSE,149,7.0,12.5,100,0.01,,---,0.01,VWS V14.01,2013-04-04 09:25:00,
2013-04-04 05:30:00,70.5,70.5,29.95,SSW,210,7.3,7.3,100,0.01,,---,0.01,VWS V14.01,2013-04-04 09:30:00,
2013-04-04 05:35:00,70.5,70.5,29.97,SW,233,7.3,7.3,100,0.01,,---,0.01,VWS V14.01,2013-04-04 09:35:00,
2013-04-04 05:40:00,70.2,70.2,29.97,WSW,243,5.1,7.0,100,0.01,,---,0.01,VWS V14.01,2013-04-04 09:40:00,
2013-04-04 05:45:00,70.3,70.3,29.96,SW,228,3.7,7.3,100,0.01,,---,0.01,VWS V14.01,2013-04-04 09:45:00,
2013-04-04 05:50:00,70.7,70.7,29.96,ESE,114,1.3,4.7,100,0.01,,---,0.01,VWS V14.01,2013-04-04 09:50:00,
2013-04-04 05:55:00,70.6,70.6,29.96,SSE,166,8.3,8.5,100,0.01,,---,0.01,VWS V14.01,2013-04-04 09:55:00,
2013-04-04 06:00:00,70.4,70.4,29.97,SW,215,3.0,5.0,100,0.01,,---,0.01,VWS V14.01,2013-04-04 10:00:00,
2013-04-04 06:05:00,70.5,70.5,29.97,SSE,165,6.7,8.4,100,0.01,,---,0.01,VWS V14.01,2013-04-04 10:05:00,
2013-04-04 06:10:00,70.5,70.5,29.97,SSW,198,2.2,9.6,100,0.01,,---,0.01,VWS V14.01,2013-04-04 10:10:00,
2013-04-04 06:15:00,70.8,70.8,29.97,SSW,207,3.3,3.3,100,0.01,,---,0.01,VWS V14.01,2013-04-04 10:15:00,
2013-04-04 06:20:00,70.7,70.7,29.97,SE,143,4.8,7.2,100,0.01,,---,0.01,VWS V14.01,2013-04-04 10:20:00,
2013-04-04 06:25:00,71.0,71.0,29.97,South,180,9.4,9.6,100,0.00,,---,0.01,VWS V14.01,2013-04-04 10:25:00,
2013-04-04 06:30:00,70.7,70.7,29.97,South,180,4.5,11.1,100,0.00,,---,0.01,VWS V14.01,2013-04-04 10:30:00,
2013-04-04 06:35:00,70.3,70.2,29.97,SSW,193,6.8,8.9,100,0.00,,---,0.01,VWS V14.01,2013-04-04 10:35:00,
2013-04-04 06:40:00,70.9,70.8,29.97,WSW,250,4.3,9.7,100,0.00,,---,0.01,VWS V14.01,2013-04-04 10:40:00,
2013-04-04 06:45:00,71.0,70.8,29.96,SSW,198,6.5,14.1,99,0.00,,---,0.01,VWS V14.01,2013-04-04 10:45:00,
2013-04-04 06:50:00,71.1,70.8,29.95,South,177,8.9,10.4,99,0.00,,---,0.01,VWS V14.01,2013-04-04 10:50:00,
2013-04-04 06:55:00,70.1,69.8,29.93,SSE,156,11.8,11.8,99,0.00,,---,0.01,VWS V14.01,2013-04-04 10:55:00,
2013-04-04 07:00:00,70.4,70.0,29.94,South,177,10.6,16.4,99,0.01,,---,0.02,VWS V14.01,2013-04-04 11:00:00,
2013-04-04 07:05:00,70.6,70.1,29.93,SW,214,12.6,21.9,98,0.01,,---,0.02,VWS V14.01,2013-04-04 11:05:00,
2013-04-04 07:10:00,70.2,69.8,29.92,South,180,8.6,10.0,99,0.02,,---,0.03,VWS V14.01,2013-04-04 11:10:00,
2013-04-04 07:15:00,70.4,70.1,29.92,South,176,6.8,9.9,99,0.03,,---,0.04,VWS V14.01,2013-04-04 11:15:00,
2013-04-04 07:20:00,69.7,69.4,29.92,SE,141,12.9,18.5,99,0.03,,---,0.04,VWS V14.01,2013-04-04 11:20:00,
2013-04-04 07:25:00,70.0,69.7,29.92,South,177,10.4,10.4,99,0.03,,---,0.04,VWS V14.01,2013-04-04 11:25:00,
2013-04-04 07:30:00,69.6,69.3,29.92,SSE,165,13.0,13.0,99,0.03,,---,0.04,VWS V14.01,2013-04-04 11:30:00,
2013-04-04 07:36:00,69.4,69.2,29.92,SSW,202,8.8,17.0,99,0.03,,---,0.04,VWS V14.01,2013-04-04 11:36:00,
2013-04-04 07:41:00,69.4,69.2,29.92,South,176,9.2,15.7,99,0.03,,---,0.04,VWS V14.01,2013-04-04 11:41:00,
2013-04-04 07:46:00,69.6,69.3,29.92,South,177,6.9,10.4,99,0.03,,---,0.04,VWS V14.01,2013-04-04 11:46:00,
2013-04-04 07:51:00,69.3,69.0,29.92,South,179,12.4,12.4,99,0.03,,---,0.04,VWS V14.01,2013-04-04 11:51:00,
2013-04-04 07:56:00,69.5,69.2,29.91,South,176,10.1,12.7,99,0.03,,---,0.04,VWS V14.01,2013-04-04 11:56:00,
2013-04-04 08:01:00,70.0,69.7,29.92,SW,221,12.3,15.5,99,0.02,,---,0.04,VWS V14.01,2013-04-04 12:01:00,
2013-04-04 08:06:00,69.1,68.6,29.92,SSE,165,8.6,13.0,98,0.02,,---,0.04,VWS V14.01,2013-04-04 12:06:00,
2013-04-04 08:11:00,69.7,69.1,29.92,SSE,159,7.2,11.1,98,0.01,,---,0.04,VWS V14.01,2013-04-04 12:11:00,
2013-04-04 08:16:00,69.2,68.4,29.91,South,170,3.4,5.2,97,0.00,,---,0.04,VWS V14.01,2013-04-04 12:16:00,
2013-04-04 08:21:00,69.6,68.7,29.92,South,181,3.9,12.3,97,0.00,,---,0.04,VWS V14.01,2013-04-04 12:21:00,
2013-04-04 08:26:00,70.5,69.5,29.92,South,187,12.2,12.2,97,0.00,,---,0.04,VWS V14.01,2013-04-04 12:26:00,
2013-04-04 08:31:00,70.5,69.4,29.92,SSW,208,8.9,9.2,96,0.00,,---,0.04,VWS V14.01,2013-04-04 12:31:00,
2013-04-04 08:36:00,70.7,69.5,29.93,SSW,211,5.7,9.1,96,0.00,,---,0.04,VWS V14.01,2013-04-04 12:36:00,
2013-04-04 08:41:00,70.5,69.1,29.95,SSW,210,6.0,6.3,95,0.00,,---,0.04,VWS V14.01,2013-04-04 12:41:00,
2013-04-04 08:46:00,70.9,69.0,29.95,WSW,255,1.9,4.2,94,0.00,,---,0.04,VWS V14.01,2013-04-04 12:46:00,
2013-04-04 08:51:00,71.0,69.2,29.96,North,354,5.2,5.2,94,0.00,,---,0.04,VWS V14.01,2013-04-04 12:51:00,
2013-04-04 08:56:00,71.5,69.7,29.97,NW,315,3.4,4.3,94,0.00,,---,0.04,VWS V14.01,2013-04-04 12:56:00,
2013-04-04 09:01:00,70.9,69.0,29.97,North,354,1.9,3.7,94,0.00,,---,0.04,VWS V14.01,2013-04-04 13:01:00,
2013-04-04 09:06:00,71.4,69.2,29.97,NNW,336,4.2,5.3,93,0.00,,---,0.04,VWS V14.01,2013-04-04 13:06:00,
2013-04-04 09:11:00,70.8,68.6,29.97,WNW,292,3.4,6.5,93,0.00,,---,0.04,VWS V14.01,2013-04-04 13:11:00,
2013-04-04 09:16:00,71.4,69.2,29.98,West,267,1.4,2.0,93,0.00,,---,0.04,VWS V14.01,2013-04-04 13:16:00,
2013-04-04 09:21:00,71.3,68.9,29.98,West,277,3.5,3.5,92,0.00,,---,0.04,VWS V14.01,2013-04-04 13:21:00,
2013-04-04 09:26:00,71.5,68.9,29.98,West,259,4.3,4.4,92,0.00,,---,0.04,VWS V14.01,2013-04-04 13:26:00,
2013-04-04 09:31:00,71.8,69.0,30.00,WSW,255,4.3,4.3,91,0.00,,---,0.04,VWS V14.01,2013-04-04 13:31:00,
2013-04-04 09:36:00,71.6,68.7,30.00,WSW,255,1.4,2.2,90,0.00,,---,0.04,VWS V14.01,2013-04-04 13:36:00,
2013-04-04 09:41:00,71.3,68.4,29.99,North,0,1.9,3.0,90,0.00,,---,0.04,VWS V14.01,2013-04-04 13:41:00,
2013-04-04 09:46:00,70.9,67.9,29.99,West,260,1.0,1.9,90,0.00,,---,0.04,VWS V14.01,2013-04-04 13:46:00,
2013-04-04 09:51:00,71.2,68.3,29.99,WSW,253,0.0,0.0,91,0.00,,---,0.04,VWS V14.01,2013-04-04 13:51:00,
2013-04-04 09:56:00,71.7,68.6,29.99,SW,218,1.4,2.5,90,0.00,,---,0.04,VWS V14.01,2013-04-04 13:56:00,
2013-04-04 10:01:00,71.5,68.2,29.98,WSW,246,2.8,2.8,89,0.00,,---,0.04,VWS V14.01,2013-04-04 14:01:00,
2013-04-04 10:06:00,71.5,68.1,29.99,SW,229,3.2,3.2,89,0.00,,---,0.04,VWS V14.01,2013-04-04 14:06:00,
2013-04-04 10:11:00,72.0,68.7,29.98,SW,228,4.1,4.2,89,0.00,,---,0.04,VWS V14.01,2013-04-04 14:11:00,
2013-04-04 10:16:00,71.4,67.9,29.99,SW,231,1.4,2.7,89,0.00,,---,0.04,VWS V14.01,2013-04-04 14:16:00,
2013-04-04 10:21:00,71.6,68.0,29.99,WSW,255,2.3,3.5,88,0.00,,---,0.04,VWS V14.01,2013-04-04 14:21:00,
2013-04-04 10:26:00,71.7,68.1,29.98,SW,222,6.3,6.3,88,0.00,,---,0.04,VWS V14.01,2013-04-04 14:26:00,
2013-04-04 10:31:00,72.0,68.1,29.98,South,190,6.3,7.0,87,0.00,,---,0.04,VWS V14.01,2013-04-04 14:31:00,
2013-04-04 10:36:00,72.4,68.2,29.99,SE,141,4.1,4.4,86,0.00,,---,0.04,VWS V14.01,2013-04-04 14:36:00,
2013-04-04 10:41:00,72.9,68.4,29.98,South,184,6.6,9.1,86,0.00,,---,0.04,VWS V14.01,2013-04-04 14:41:00,
2013-04-04 10:46:00,73.3,68.8,29.98,South,174,2.6,2.7,86,0.00,,---,0.04,VWS V14.01,2013-04-04 14:46:00,
2013-04-04 10:51:00,72.4,67.9,29.99,SSW,205,1.2,5.0,86,0.00,,---,0.04,VWS V14.01,2013-04-04 14:51:00,
2013-04-04 10:56:00,73.1,68.4,29.99,SSW,200,4.5,6.9,85,0.00,,---,0.04,VWS V14.01,2013-04-04 14:56:00,
2013-04-04 11:01:00,73.5,68.4,30.00,South,186,5.3,5.8,84,0.00,,---,0.04,VWS V14.01,2013-04-04 15:01:00,
2013-04-04 11:06:00,73.9,68.5,30.00,SSW,208,4.9,4.9,83,0.00,,---,0.04,VWS V14.01,2013-04-04 15:06:00,
2013-04-04 11:11:00,74.0,68.7,30.00,SW,231,4.7,5.2,84,0.00,,---,0.04,VWS V14.01,2013-04-04 15:11:00,
2013-04-04 11:16:00,74.2,68.7,29.99,South,183,2.5,5.0,83,0.00,,---,0.04,VWS V14.01,2013-04-04 15:16:00,
2013-04-04 11:21:00,73.1,67.8,29.99,South,180,2.7,4.3,83,0.00,,---,0.04,VWS V14.01,2013-04-04 15:21:00,
2013-04-04 11:27:00,74.0,68.5,29.99,SSE,165,4.8,7.8,83,0.00,,---,0.04,VWS V14.01,2013-04-04 15:27:00,
2013-04-04 11:32:00,73.9,68.3,29.99,SSW,201,6.1,9.7,83,0.00,,---,0.04,VWS V14.01,2013-04-04 15:32:00,
2013-04-04 11:37:00,74.2,68.1,30.00,South,183,5.6,10.1,81,0.00,,---,0.04,VWS V14.01,2013-04-04 15:37:00,
2013-04-04 11:42:00,73.8,68.0,30.00,SW,225,2.4,3.2,82,0.00,,---,0.04,VWS V14.01,2013-04-04 15:42:00,
2013-04-04 11:47:00,73.8,67.7,30.00,WSW,243,5.0,5.0,81,0.00,,---,0.04,VWS V14.01,2013-04-04 15:47:00,
2013-04-04 11:52:00,74.5,68.3,30.00,South,181,6.0,11.6,81,0.00,,---,0.04,VWS V14.01,2013-04-04 15:52:00,
2013-04-04 11:57:00,73.6,67.4,30.00,SW,222,7.3,7.8,81,0.00,,---,0.04,VWS V14.01,2013-04-04 15:57:00,
2013-04-04 12:02:00,74.4,68.3,30.00,SSW,194,6.2,6.2,81,0.00,,---,0.04,VWS V14.01,2013-04-04 16:02:00,
2013-04-04 12:07:00,74.2,67.9,30.00,SW,226,5.3,7.5,81,0.00,,---,0.04,VWS V14.01,2013-04-04 16:07:00,
2013-04-04 12:12:00,73.7,66.3,30.00,SW,232,9.8,10.2,78,0.00,,---,0.04,VWS V14.01,2013-04-04 16:12:00,
2013-04-04 12:17:00,74.1,66.9,30.00,SSW,212,6.0,8.9,78,0.00,,---,0.04,VWS V14.01,2013-04-04 16:17:00,
2013-04-04 12:22:00,74.2,67.1,30.00,SSW,195,1.7,1.8,78,0.00,,---,0.04,VWS V14.01,2013-04-04 16:22:00,
2013-04-04 12:27:00,74.1,67.0,30.00,South,179,8.6,12.2,78,0.00,,---,0.04,VWS V14.01,2013-04-04 16:27:00,
2013-04-04 12:32:00,73.6,66.3,30.00,SSW,211,9.1,9.1,78,0.00,,---,0.04,VWS V14.01,2013-04-04 16:32:00,
2013-04-04 12:37:00,73.3,66.1,30.00,WSW,238,9.8,9.8,78,0.00,,---,0.04,VWS V14.01,2013-04-04 16:37:00,
2013-04-04 12:42:00,73.7,66.8,30.00,SSW,210,7.3,7.3,79,0.00,,---,0.04,VWS V14.01,2013-04-04 16:42:00,
2013-04-04 12:47:00,73.0,66.2,29.99,SW,218,2.8,6.3,79,0.00,,---,0.04,VWS V14.01,2013-04-04 16:47:00,
2013-04-04 12:52:00,73.1,66.6,29.99,SSW,207,6.1,8.2,80,0.00,,---,0.04,VWS V14.01,2013-04-04 16:52:00,
2013-04-04 12:57:00,72.9,66.3,29.99,SSW,212,6.5,7.5,80,0.00,,---,0.04,VWS V14.01,2013-04-04 16:57:00,
2013-04-04 13:02:00,73.4,67.1,30.00,SW,219,6.3,6.3,81,0.00,,---,0.04,VWS V14.01,2013-04-04 17:02:00,
2013-04-04 13:07:00,73.1,66.8,30.00,West,260,6.8,7.8,81,0.00,,---,0.04,VWS V14.01,2013-04-04 17:07:00,
2013-04-04 13:12:00,72.9,66.6,30.01,SW,235,7.9,8.9,81,0.00,,---,0.04,VWS V14.01,2013-04-04 17:12:00,
2013-04-04 13:17:00,73.3,66.9,30.01,SW,221,9.4,15.3,80,0.00,,---,0.04,VWS V14.01,2013-04-04 17:17:00,
2013-04-04 13:22:00,72.8,66.8,30.00,SW,229,5.9,8.4,81,0.00,,---,0.04,VWS V14.01,2013-04-04 17:22:00,
2013-04-04 13:27:00,73.0,67.0,30.00,SSW,208,5.6,8.9,82,0.00,,---,0.04,VWS V14.01,2013-04-04 17:27:00,
2013-04-04 13:32:00,72.9,67.0,30.01,SSW,197,4.5,5.2,82,0.00,,---,0.04,VWS V14.01,2013-04-04 17:32:00,
2013-04-04 13:37:00,72.2,67.0,30.00,SSW,211,13.7,13.7,84,0.00,,---,0.04,VWS V14.01,2013-04-04 17:37:00,
2013-04-04 13:42:00,72.8,68.0,30.01,SSW,210,4.8,4.8,85,0.00,,---,0.04,VWS V14.01,2013-04-04 17:42:00,
2013-04-04 13:47:00,72.5,68.2,30.02,WSW,249,9.2,9.4,86,0.00,,---,0.04,VWS V14.01,2013-04-04 17:47:00,
2013-04-04 13:52:00,72.4,68.9,30.01,WSW,246,7.8,9.4,89,0.02,,---,0.06,VWS V14.01,2013-04-04 17:52:00,
2013-04-04 13:57:00,72.0,69.4,30.01,SW,214,8.6,9.9,92,0.03,,---,0.07,VWS V14.01,2013-04-04 17:57:00,
2013-04-04 14:02:00,71.6,69.8,30.01,SW,221,6.7,6.7,94,0.03,,---,0.07,VWS V14.01,2013-04-04 18:02:00,
2013-04-04 14:07:00,71.3,69.9,30.01,SSW,211,10.7,12.4,95,0.03,,---,0.07,VWS V14.01,2013-04-04 18:07:00,
2013-04-04 14:12:00,71.0,69.8,30.01,SW,231,7.5,11.0,96,0.03,,---,0.07,VWS V14.01,2013-04-04 18:12:00,
2013-04-04 14:17:00,70.8,69.7,30.00,SW,229,5.2,5.2,96,0.04,,---,0.08,VWS V14.01,2013-04-04 18:17:00,
2013-04-04 14:22:00,70.4,69.4,30.00,South,190,11.4,11.4,97,0.05,,---,0.09,VWS V14.01,2013-04-04 18:22:00,
2013-04-04 14:27:00,71.0,70.1,30.00,SW,226,7.6,9.9,97,0.06,,---,0.10,VWS V14.01,2013-04-04 18:27:00,
2013-04-04 14:32:00,70.2,69.5,30.00,SW,231,7.9,8.3,98,0.07,,---,0.11,VWS V14.01,2013-04-04 18:32:00,
2013-04-04 14:37:00,70.4,69.8,29.99,SSW,208,8.6,8.7,98,0.08,,---,0.12,VWS V14.01,2013-04-04 18:37:00,
2013-04-04 14:42:00,70.5,70.0,29.98,SSW,212,8.5,12.3,98,0.09,,---,0.13,VWS V14.01,2013-04-04 18:42:00,
2013-04-04 14:47:00,69.7,69.2,29.97,South,188,12.0,17.7,98,0.09,,---,0.13,VWS V14.01,2013-04-04 18:47:00,
2013-04-04 14:52:00,69.3,68.9,29.98,South,184,9.6,14.0,99,0.08,,---,0.14,VWS V14.01,2013-04-04 18:52:00,
2013-04-04 14:57:00,69.1,68.8,29.99,South,177,9.4,18.0,99,0.07,,---,0.14,VWS V14.01,2013-04-04 18:57:00,
2013-04-04 15:02:00,70.0,69.7,29.99,SSW,200,9.3,13.4,99,0.08,,---,0.15,VWS V14.01,2013-04-04 19:02:00,
2013-04-04 15:07:00,69.7,69.4,29.98,South,179,5.6,12.9,99,0.08,,---,0.15,VWS V14.01,2013-04-04 19:07:00,
2013-04-04 15:12:00,69.1,68.8,29.98,SSW,204,14.2,14.2,99,0.09,,---,0.16,VWS V14.01,2013-04-04 19:12:00,
2013-04-04 15:17:00,68.7,68.4,29.97,SSW,197,7.8,7.8,99,0.08,,---,0.16,VWS V14.01,2013-04-04 19:17:00,
2013-04-04 15:22:00,69.0,68.7,29.96,SSE,155,6.3,6.3,99,0.07,,---,0.16,VWS V14.01,2013-04-04 19:22:00,
2013-04-04 15:27:00,68.5,68.2,29.95,South,169,11.9,11.9,99,0.06,,---,0.16,VWS V14.01,2013-04-04 19:27:00,
2013-04-04 15:32:00,68.1,67.6,29.95,SW,222,9.0,15.7,98,0.05,,---,0.16,VWS V14.01,2013-04-04 19:32:00,
2013-04-04 15:37:00,68.6,68.1,29.95,South,190,4.4,6.4,98,0.05,,---,0.17,VWS V14.01,2013-04-04 19:37:00,
2013-04-04 15:42:00,67.9,67.3,29.95,SW,215,9.8,14.0,98,0.04,,---,0.17,VWS V14.01,2013-04-04 19:42:00,
2013-04-04 15:47:00,68.4,67.8,29.94,South,188,14.1,14.1,98,0.04,,---,0.17,VWS V14.01,2013-04-04 19:47:00,
2013-04-04 15:52:00,68.5,67.8,29.94,South,180,7.6,14.2,98,0.03,,---,0.17,VWS V14.01,2013-04-04 19:52:00,
2013-04-04 15:57:00,68.0,67.3,29.94,SSW,208,4.2,4.2,98,0.03,,---,0.17,VWS V14.01,2013-04-04 19:57:00,
2013-04-04 16:02:00,68.3,67.5,29.94,SSW,194,5.5,5.7,97,0.02,,---,0.17,VWS V14.01,2013-04-04 20:02:00,
2013-04-04 16:07:00,67.9,67.1,29.93,South,191,14.5,14.9,97,0.03,,---,0.18,VWS V14.01,2013-04-04 20:07:00,
2013-04-04 16:12:00,68.4,67.6,29.88,SE,128,11.7,13.5,97,0.02,,---,0.18,VWS V14.01,2013-04-04 20:12:00,
2013-04-04 16:17:00,67.9,67.0,29.87,SSE,158,8.1,13.9,97,0.02,,---,0.18,VWS V14.01,2013-04-04 20:17:00,
2013-04-04 16:22:00,68.3,67.3,29.87,SE,141,5.0,7.3,96,0.02,,---,0.18,VWS V14.01,2013-04-04 20:22:00,
2013-04-04 16:27:00,68.2,66.9,29.88,South,187,5.7,6.8,96,0.02,,---,0.18,VWS V14.01,2013-04-04 20:27:00,
2013-04-04 16:32:00,67.6,65.7,29.88,South,186,5.1,9.5,94,0.02,,---,0.18,VWS V14.01,2013-04-04 20:32:00,
2013-04-04 16:37:00,68.0,65.6,29.87,South,177,8.8,10.4,92,0.01,,---,0.18,VWS V14.01,2013-04-04 20:37:00,
2013-04-04 16:42:00,68.7,65.9,29.88,South,177,6.2,8.9,91,0.01,,---,0.18,VWS V14.01,2013-04-04 20:42:00,
2013-04-04 16:47:00,68.6,65.1,29.89,SSW,195,4.7,6.6,88,0.01,,---,0.18,VWS V14.01,2013-04-04 20:47:00,
2013-04-04 16:52:00,68.5,64.2,29.89,SSW,210,8.8,9.5,86,0.01,,---,0.18,VWS V14.01,2013-04-04 20:52:00,
2013-04-04 16:57:00,69.2,64.6,29.89,South,186,6.3,6.6,85,0.01,,---,0.18,VWS V14.01,2013-04-04 20:57:00,
2013-04-04 17:02:00,69.6,64.8,29.89,South,190,1.7,2.9,85,0.01,,---,0.18,VWS V14.01,2013-04-04 21:02:00,
2013-04-04 17:07:00,69.8,64.7,29.89,South,181,0.9,2.4,84,0.00,,---,0.18,VWS V14.01,2013-04-04 21:07:00,
2013-04-04 17:12:00,69.9,64.7,29.89,SSE,155,1.1,2.2,84,0.00,,---,0.18,VWS V14.01,2013-04-04 21:12:00,
2013-04-04 17:17:00,69.5,64.1,29.89,SE,134,3.5,3.5,83,0.00,,---,0.18,VWS V14.01,2013-04-04 21:17:00,
2013-04-04 17:22:00,70.0,63.3,29.89,SSW,193,3.7,5.7,79,0.00,,---,0.18,VWS V14.01,2013-04-04 21:22:00,
2013-04-04 17:27:00,70.9,63.6,29.90,WNW,288,3.6,4.3,78,0.00,,---,0.18,VWS V14.01,2013-04-04 21:27:00,
2013-04-04 17:32:00,71.5,64.1,29.90,NW,326,5.0,6.5,78,0.00,,---,0.18,VWS V14.01,2013-04-04 21:32:00,
2013-04-04 17:37:00,71.4,63.8,29.89,WSW,255,2.7,3.7,77,0.00,,---,0.18,VWS V14.01,2013-04-04 21:37:00,
2013-04-04 17:42:00,71.5,64.2,29.89,SW,235,4.3,4.5,78,0.00,,---,0.18,VWS V14.01,2013-04-04 21:42:00,
2013-04-04 17:47:00,71.5,63.4,29.89,West,281,2.7,2.8,76,0.00,,---,0.18,VWS V14.01,2013-04-04 21:47:00,
2013-04-04 17:52:00,72.1,64.7,29.89,NNW,330,1.3,1.8,78,0.00,,---,0.18,VWS V14.01,2013-04-04 21:52:00,
2013-04-04 17:57:00,71.3,63.2,29.89,NW,309,4.9,5.5,76,0.00,,---,0.18,VWS V14.01,2013-04-04 21:57:00,
2013-04-04 18:02:00,72.2,64.2,29.89,NW,309,1.3,1.9,76,0.00,,---,0.18,VWS V14.01,2013-04-04 22:02:00,
2013-04-04 18:07:00,72.7,64.1,29.89,West,281,3.4,4.4,74,0.00,,---,0.18,VWS V14.01,2013-04-04 22:07:00,
2013-04-04 18:12:00,72.4,63.9,29.89,West,259,2.5,2.9,75,0.00,,---,0.18,VWS V14.01,2013-04-04 22:12:00,
2013-04-04 18:17:00,72.7,64.3,29.90,WSW,255,4.1,5.0,75,0.00,,---,0.18,VWS V14.01,2013-04-04 22:17:00,
2013-04-04 18:22:00,72.3,64.1,29.90,NW,322,3.9,3.9,75,0.00,,---,0.18,VWS V14.01,2013-04-04 22:22:00,
2013-04-04 18:27:00,72.5,64.2,29.90,NW,305,1.8,1.9,75,0.00,,---,0.18,VWS V14.01,2013-04-04 22:27:00,
2013-04-04 18:32:00,71.5,63.5,29.90,West,280,1.4,2.1,76,0.00,,---,0.18,VWS V14.01,2013-04-04 22:32:00,
2013-04-04 18:37:00,72.2,64.3,29.89,West,280,3.5,4.3,76,0.00,,---,0.18,VWS V14.01,2013-04-04 22:37:00,
2013-04-04 18:42:00,71.7,63.7,29.89,West,280,0.4,0.6,76,0.00,,---,0.18,VWS V14.01,2013-04-04 22:42:00,
2013-04-04 18:47:00,71.2,63.3,29.89,West,276,1.4,1.6,76,0.00,,---,0.18,VWS V14.01,2013-04-04 22:47:00,
2013-04-04 18:52:00,70.9,63.0,29.89,West,278,2.1,2.1,76,0.00,,---,0.18,VWS V14.01,2013-04-04 22:52:00,
2013-04-04 18:57:00,71.6,64.1,29.89,West,280,1.3,1.3,77,0.00,,---,0.18,VWS V14.01,2013-04-04 22:57:00,
2013-04-04 19:02:00,71.7,64.1,29.89,West,280,1.9,2.2,77,0.00,,---,0.18,VWS V14.01,2013-04-04 23:02:00,
2013-04-04 19:07:00,71.6,64.2,29.88,West,264,0.0,0.0,77,0.00,,---,0.18,VWS V14.01,2013-04-04 23:07:00,
2013-04-04 19:13:00,71.5,64.2,29.88,West,264,0.0,0.0,78,0.00,,---,0.18,VWS V14.01,2013-04-04 23:13:00,
2013-04-04 19:18:00,70.9,63.8,29.88,WSW,252,0.0,0.4,78,0.00,,---,0.18,VWS V14.01,2013-04-04 23:18:00,
2013-04-04 19:23:00,70.3,63.3,29.87,West,274,0.0,0.0,78,0.00,,---,0.18,VWS V14.01,2013-04-04 23:23:00,
2013-04-04 19:28:00,71.1,64.4,29.87,West,274,1.1,1.5,79,0.00,,---,0.18,VWS V14.01,2013-04-04 23:28:00,
2013-04-04 19:33:00,70.5,63.8,29.87,West,271,0.0,0.0,79,0.00,,---,0.18,VWS V14.01,2013-04-04 23:33:00,
2013-04-04 19:37:00,70.4,63.8,29.87,West,271,0.0,0.0,80,0.00,,---,0.18,VWS V14.01,2013-04-04 23:37:00,
2013-04-04 19:42:00,70.3,63.9,29.87,West,271,0.0,0.0,80,0.00,,---,0.18,VWS V14.01,2013-04-04 23:42:00,
2013-04-04 19:47:00,70.0,63.5,29.87,West,271,0.0,0.0,80,0.00,,---,0.18,VWS V14.01,2013-04-04 23:47:00,
2013-04-04 19:52:00,70.0,63.7,29.87,West,271,0.0,0.0,80,0.00,,---,0.18,VWS V14.01,2013-04-04 23:52:00,
2013-04-04 19:57:00,70.1,64.0,29.87,West,271,0.0,0.0,81,0.00,,---,0.18,VWS V14.01,2013-04-04 23:57:00,
2013-04-04 20:02:00,69.7,63.8,29.87,West,271,0.0,0.0,82,0.00,,---,0.18,VWS V14.01,2013-04-05 00:02:00,
2013-04-04 20:07:00,69.1,63.7,29.89,West,271,0.0,0.0,83,0.00,,---,0.18,VWS V14.01,2013-04-05 00:07:00,
2013-04-04 20:12:00,69.2,64.1,29.89,West,281,1.9,2.5,84,0.00,,---,0.18,VWS V14.01,2013-04-05 00:12:00,
2013-04-04 20:17:00,69.5,64.6,29.89,WNW,283,1.6,1.8,84,0.00,,---,0.18,VWS V14.01,2013-04-05 00:17:00,
2013-04-04 20:22:00,69.0,64.3,29.89,West,277,1.5,1.6,85,0.00,,---,0.18,VWS V14.01,2013-04-05 00:22:00,
2013-04-04 20:27:00,68.7,64.2,29.90,West,269,0.0,0.0,86,0.00,,---,0.18,VWS V14.01,2013-04-05 00:27:00,
2013-04-04 20:32:00,68.2,63.9,29.91,West,280,1.7,1.7,86,0.00,,---,0.18,VWS V14.01,2013-04-05 00:32:00,
2013-04-04 20:37:00,68.4,64.1,29.91,WSW,253,0.0,0.0,86,0.00,,---,0.18,VWS V14.01,2013-04-05 00:37:00,
2013-04-04 20:42:00,68.9,64.6,29.91,West,276,1.4,2.4,86,0.00,,---,0.18,VWS V14.01,2013-04-05 00:42:00,
2013-04-04 20:47:00,68.4,64.4,29.91,West,260,0.3,0.4,87,0.00,,---,0.18,VWS V14.01,2013-04-05 00:47:00,
2013-04-04 20:52:00,68.5,64.5,29.91,West,260,0.0,0.0,87,0.00,,---,0.18,VWS V14.01,2013-04-05 00:52:00,
2013-04-04 20:57:00,68.8,65.0,29.91,West,260,0.0,0.0,88,0.00,,---,0.18,VWS V14.01,2013-04-05 00:57:00,
2013-04-04 21:02:00,68.4,64.7,29.91,West,260,0.0,0.0,88,0.00,,---,0.18,VWS V14.01,2013-04-05 01:02:00,
2013-04-04 21:07:00,68.4,64.8,29.91,West,260,0.0,0.0,88,0.00,,---,0.18,VWS V14.01,2013-04-05 01:07:00,
2013-04-04 21:12:00,68.0,64.4,29.91,West,260,0.0,0.0,88,0.00,,---,0.18,VWS V14.01,2013-04-05 01:12:00,
2013-04-04 21:17:00,68.3,64.8,29.92,West,260,0.0,0.0,89,0.00,,---,0.18,VWS V14.01,2013-04-05 01:17:00,
2013-04-04 21:22:00,68.5,65.1,29.92,West,260,0.0,0.0,89,0.00,,---,0.18,VWS V14.01,2013-04-05 01:22:00,
2013-04-04 21:27:00,67.8,64.5,29.93,West,260,0.0,0.0,89,0.00,,---,0.18,VWS V14.01,2013-04-05 01:27:00,
2013-04-04 21:32:00,67.3,64.1,29.93,West,260,0.0,0.0,90,0.00,,---,0.18,VWS V14.01,2013-04-05 01:32:00,
2013-04-04 21:37:00,68.2,65.0,29.93,West,260,0.0,0.0,90,0.00,,---,0.18,VWS V14.01,2013-04-05 01:37:00,
2013-04-04 21:42:00,67.9,64.7,29.93,West,260,0.0,0.0,90,0.00,,---,0.18,VWS V14.01,2013-04-05 01:42:00,
2013-04-04 21:47:00,68.2,65.1,29.93,West,260,0.0,0.0,90,0.00,,---,0.18,VWS V14.01,2013-04-05 01:47:00,
2013-04-04 21:52:00,68.3,65.3,29.93,West,260,0.0,0.0,90,0.00,,---,0.18,VWS V14.01,2013-04-05 01:52:00,
2013-04-04 21:57:00,68.4,65.6,29.94,West,260,0.0,0.0,91,0.00,,---,0.18,VWS V14.01,2013-04-05 01:57:00,
2013-04-04 22:02:00,68.2,65.4,29.94,West,260,0.0,0.0,91,0.00,,---,0.18,VWS V14.01,2013-04-05 02:02:00,
2013-04-04 22:07:00,68.5,65.9,29.95,West,260,0.0,0.0,91,0.00,,---,0.18,VWS V14.01,2013-04-05 02:07:00,
2013-04-04 22:12:00,67.8,65.2,29.95,West,260,0.0,0.0,92,0.00,,---,0.18,VWS V14.01,2013-04-05 02:12:00,
2013-04-04 22:17:00,68.3,65.8,29.95,West,260,0.0,0.0,92,0.00,,---,0.18,VWS V14.01,2013-04-05 02:17:00,
2013-04-04 22:22:00,68.4,65.9,29.95,West,260,0.0,0.0,92,0.00,,---,0.18,VWS V14.01,2013-04-05 02:22:00,
2013-04-04 22:27:00,68.1,65.7,29.95,West,260,0.0,0.0,92,0.00,,---,0.18,VWS V14.01,2013-04-05 02:27:00,
2013-04-04 22:32:00,68.0,65.5,29.95,West,260,0.0,0.0,92,0.00,,---,0.18,VWS V14.01,2013-04-05 02:32:00,
2013-04-04 22:37:00,68.5,65.9,29.95,West,260,0.0,0.0,92,0.00,,---,0.18,VWS V14.01,2013-04-05 02:37:00,
2013-04-04 22:42:00,68.4,65.8,29.95,West,260,0.0,0.0,91,0.00,,---,0.18,VWS V14.01,2013-04-05 02:42:00,
2013-04-04 22:47:00,68.4,65.9,29.93,West,278,1.4,1.7,92,0.00,,---,0.18,VWS V14.01,2013-04-05 02:47:00,
2013-04-04 22:52:00,68.0,65.4,29.92,West,281,4.5,4.5,92,0.00,,---,0.18,VWS V14.01,2013-04-05 02:52:00,
2013-04-04 22:57:00,67.9,65.2,29.92,WSW,245,0.0,0.0,91,0.00,,---,0.18,VWS V14.01,2013-04-05 02:57:00,
2013-04-04 23:02:00,68.1,65.4,29.93,West,263,0.0,0.0,91,0.00,,---,0.18,VWS V14.01,2013-04-05 03:02:00,
2013-04-04 23:07:00,68.2,65.5,29.92,West,263,0.0,0.0,91,0.00,,---,0.18,VWS V14.01,2013-04-05 03:07:00,
2013-04-04 23:12:00,68.4,65.6,29.92,West,280,0.9,0.9,91,0.00,,---,0.18,VWS V14.01,2013-04-05 03:12:00,
2013-04-04 23:17:00,68.4,65.6,29.92,West,266,0.7,0.9,91,0.00,,---,0.18,VWS V14.01,2013-04-05 03:17:00,
2013-04-04 23:22:00,68.0,64.8,29.92,WSW,253,0.6,1.0,90,0.00,,---,0.18,VWS V14.01,2013-04-05 03:22:00,
2013-04-04 23:28:00,68.0,64.2,29.92,SSW,212,1.0,1.6,88,0.00,,---,0.18,VWS V14.01,2013-04-05 03:28:00,
2013-04-04 23:33:00,68.2,64.1,29.93,South,177,4.5,5.8,87,0.00,,---,0.18,VWS V14.01,2013-04-05 03:33:00,
2013-04-04 23:38:00,68.3,63.9,29.92,South,190,2.0,2.0,86,0.00,,---,0.18,VWS V14.01,2013-04-05 03:38:00,
2013-04-04 23:42:00,68.6,64.0,29.93,SW,231,3.4,5.0,85,0.00,,---,0.18,VWS V14.01,2013-04-05 03:42:00,
2013-04-04 23:47:00,68.8,64.1,29.93,WSW,249,4.6,6.5,85,0.00,,---,0.18,VWS V14.01,2013-04-05 03:47:00,
2013-04-04 23:53:00,69.1,64.3,29.94,South,169,2.2,2.2,85,0.00,,---,0.18,VWS V14.01,2013-04-05 03:53:00,
2013-04-04 23:58:00,68.6,63.5,29.94,SSW,205,1.9,3.2,84,0.00,,---,0.18,VWS V14.01,2013-04-05 03:58:00,